sensor_id;sensor_type;location;lat;lon;timestamp;temperature;humidity
22966;DHT22;11649;48.090;9.754;2023-05-07T00:02:08;14.20;99.90
22966;DHT22;11649;48.090;9.754;2023-05-07T00:04:34;14.20;99.90
22966;DHT22;11649;48.090;9.754;2023-05-07T00:07:04;14.20;99.90
22966;DHT22;11649;48.090;9.754;2023-05-07T00:09:31;14.20;99.90
22966;DHT22;11649;48.090;9.754;2023-05-07T00:11:58;14.20;99.90
22966;DHT22;11649;48.090;9.754;2023-05-07T00:14:24;14.20;99.90
22966;DHT22;11649;48.090;9.754;2023-05-07T00:16:51;14.10;99.90
22966;DHT22;11649;48.090;9.754;2023-05-07T00:19:18;14.10;99.90
22966;DHT22;11649;48.090;9.754;2023-05-07T00:21:45;14.10;99.90
22966;DHT22;11649;48.090;9.754;2023-05-07T00:24:11;14.30;99.90
22966;DHT22;11649;48.090;9.754;2023-05-07T00:26:38;14.20;99.90
22966;DHT22;11649;48.090;9.754;2023-05-07T00:29:05;14.10;99.90
22966;DHT22;11649;48.090;9.754;2023-05-07T00:31:31;14.10;99.90
22966;DHT22;11649;48.090;9.754;2023-05-07T00:33:58;14.00;99.90
22966;DHT22;11649;48.090;9.754;2023-05-07T00:36:25;14.00;99.90
22966;DHT22;11649;48.090;9.754;2023-05-07T00:38:54;13.80;99.90
22966;DHT22;11649;48.090;9.754;2023-05-07T00:41:21;13.70;99.90
22966;DHT22;11649;48.090;9.754;2023-05-07T00:43:49;13.80;99.90
22966;DHT22;11649;48.090;9.754;2023-05-07T00:46:20;13.70;99.90
22966;DHT22;11649;48.090;9.754;2023-05-07T00:48:48;13.70;99.90
22966;DHT22;11649;48.090;9.754;2023-05-07T00:51:15;13.60;99.90
22966;DHT22;11649;48.090;9.754;2023-05-07T00:53:42;13.60;99.90
22966;DHT22;11649;48.090;9.754;2023-05-07T00:56:09;13.70;99.90
22966;DHT22;11649;48.090;9.754;2023-05-07T00:58:36;13.70;99.90
22966;DHT22;11649;48.090;9.754;2023-05-07T01:01:03;13.60;99.90
22966;DHT22;11649;48.090;9.754;2023-05-07T01:03:30;13.60;99.90
22966;DHT22;11649;48.090;9.754;2023-05-07T01:05:59;13.60;99.90
22966;DHT22;11649;48.090;9.754;2023-05-07T01:08:28;13.60;99.90
22966;DHT22;11649;48.090;9.754;2023-05-07T01:10:57;13.60;99.90
22966;DHT22;11649;48.090;9.754;2023-05-07T01:13:24;13.50;99.90
22966;DHT22;11649;48.090;9.754;2023-05-07T01:15:51;13.40;99.90
22966;DHT22;11649;48.090;9.754;2023-05-07T01:18:18;13.40;99.90
22966;DHT22;11649;48.090;9.754;2023-05-07T01:20:45;13.70;99.90
22966;DHT22;11649;48.090;9.754;2023-05-07T01:23:12;13.50;99.90
22966;DHT22;11649;48.090;9.754;2023-05-07T01:25:39;13.50;99.90
22966;DHT22;11649;48.090;9.754;2023-05-07T01:28:06;13.30;99.90
22966;DHT22;11649;48.090;9.754;2023-05-07T01:30:33;13.10;99.90
22966;DHT22;11649;48.090;9.754;2023-05-07T01:33:02;13.00;99.90
22966;DHT22;11649;48.090;9.754;2023-05-07T01:35:35;13.10;99.90
22966;DHT22;11649;48.090;9.754;2023-05-07T01:38:03;13.20;99.90
22966;DHT22;11649;48.090;9.754;2023-05-07T01:40:31;13.30;99.90
22966;DHT22;11649;48.090;9.754;2023-05-07T01:42:58;13.30;99.90
22966;DHT22;11649;48.090;9.754;2023-05-07T01:45:25;13.30;99.90
22966;DHT22;11649;48.090;9.754;2023-05-07T01:47:53;13.10;99.90
22966;DHT22;11649;48.090;9.754;2023-05-07T01:50:20;13.10;99.90
22966;DHT22;11649;48.090;9.754;2023-05-07T01:52:50;13.20;99.90
22966;DHT22;11649;48.090;9.754;2023-05-07T01:55:17;13.10;99.90
22966;DHT22;11649;48.090;9.754;2023-05-07T01:57:44;13.10;99.90
22966;DHT22;11649;48.090;9.754;2023-05-07T02:00:11;13.10;99.90
22966;DHT22;11649;48.090;9.754;2023-05-07T02:02:39;13.10;99.90
22966;DHT22;11649;48.090;9.754;2023-05-07T02:05:06;13.10;99.90
22966;DHT22;11649;48.090;9.754;2023-05-07T02:07:33;13.20;99.90
22966;DHT22;11649;48.090;9.754;2023-05-07T02:10:00;13.10;99.90
22966;DHT22;11649;48.090;9.754;2023-05-07T02:12:26;13.10;99.90
22966;DHT22;11649;48.090;9.754;2023-05-07T02:14:53;13.20;99.90
22966;DHT22;11649;48.090;9.754;2023-05-07T02:17:20;13.20;99.90
22966;DHT22;11649;48.090;9.754;2023-05-07T02:19:46;13.20;99.90
22966;DHT22;11649;48.090;9.754;2023-05-07T02:22:13;13.20;99.90
22966;DHT22;11649;48.090;9.754;2023-05-07T02:24:40;13.20;99.90
22966;DHT22;11649;48.090;9.754;2023-05-07T02:27:07;13.20;99.90
22966;DHT22;11649;48.090;9.754;2023-05-07T02:29:33;13.30;99.90
22966;DHT22;11649;48.090;9.754;2023-05-07T02:32:00;13.20;99.90
22966;DHT22;11649;48.090;9.754;2023-05-07T02:34:27;13.40;99.90
22966;DHT22;11649;48.090;9.754;2023-05-07T02:36:54;13.30;99.90
22966;DHT22;11649;48.090;9.754;2023-05-07T02:39:22;13.30;99.90
22966;DHT22;11649;48.090;9.754;2023-05-07T02:41:49;13.60;99.90
22966;DHT22;11649;48.090;9.754;2023-05-07T02:44:15;13.20;99.90
22966;DHT22;11649;48.090;9.754;2023-05-07T02:46:42;13.20;99.90
22966;DHT22;11649;48.090;9.754;2023-05-07T02:49:09;13.20;99.90
22966;DHT22;11649;48.090;9.754;2023-05-07T02:51:35;13.30;99.90
22966;DHT22;11649;48.090;9.754;2023-05-07T02:54:02;13.10;99.90
22966;DHT22;11649;48.090;9.754;2023-05-07T02:56:29;13.20;99.90
22966;DHT22;11649;48.090;9.754;2023-05-07T02:58:56;13.20;99.90
22966;DHT22;11649;48.090;9.754;2023-05-07T03:01:23;12.90;99.90
22966;DHT22;11649;48.090;9.754;2023-05-07T03:03:50;12.80;99.90
22966;DHT22;11649;48.090;9.754;2023-05-07T03:06:17;12.70;99.90
22966;DHT22;11649;48.090;9.754;2023-05-07T03:08:44;12.70;99.90
22966;DHT22;11649;48.090;9.754;2023-05-07T03:11:10;12.70;99.90
22966;DHT22;11649;48.090;9.754;2023-05-07T03:13:37;12.70;99.90
22966;DHT22;11649;48.090;9.754;2023-05-07T03:16:04;12.70;99.90
22966;DHT22;11649;48.090;9.754;2023-05-07T03:18:32;12.60;99.90
22966;DHT22;11649;48.090;9.754;2023-05-07T03:20:58;12.50;99.90
22966;DHT22;11649;48.090;9.754;2023-05-07T03:23:25;12.50;99.90
22966;DHT22;11649;48.090;9.754;2023-05-07T03:25:52;12.80;99.90
22966;DHT22;11649;48.090;9.754;2023-05-07T03:28:18;12.40;99.90
22966;DHT22;11649;48.090;9.754;2023-05-07T03:30:47;12.30;99.90
22966;DHT22;11649;48.090;9.754;2023-05-07T03:33:14;12.30;99.90
22966;DHT22;11649;48.090;9.754;2023-05-07T03:35:41;12.30;99.90
22966;DHT22;11649;48.090;9.754;2023-05-07T03:38:07;12.30;99.90
22966;DHT22;11649;48.090;9.754;2023-05-07T03:40:34;12.30;99.90
22966;DHT22;11649;48.090;9.754;2023-05-07T03:43:01;12.20;99.90
22966;DHT22;11649;48.090;9.754;2023-05-07T03:45:28;12.20;99.90
22966;DHT22;11649;48.090;9.754;2023-05-07T03:47:54;12.10;99.90
22966;DHT22;11649;48.090;9.754;2023-05-07T03:50:21;12.10;99.90
22966;DHT22;11649;48.090;9.754;2023-05-07T03:52:48;12.10;99.90
22966;DHT22;11649;48.090;9.754;2023-05-07T03:55:15;12.00;99.90
22966;DHT22;11649;48.090;9.754;2023-05-07T03:57:41;12.00;99.90
22966;DHT22;11649;48.090;9.754;2023-05-07T04:00:08;12.50;99.90
22966;DHT22;11649;48.090;9.754;2023-05-07T04:02:36;11.80;99.90
22966;DHT22;11649;48.090;9.754;2023-05-07T04:05:03;11.70;99.90
22966;DHT22;11649;48.090;9.754;2023-05-07T04:07:30;11.70;99.90
22966;DHT22;11649;48.090;9.754;2023-05-07T04:09:57;11.70;99.90
22966;DHT22;11649;48.090;9.754;2023-05-07T04:12:24;11.70;99.90
22966;DHT22;11649;48.090;9.754;2023-05-07T04:14:50;11.80;99.90
22966;DHT22;11649;48.090;9.754;2023-05-07T04:17:17;11.70;99.90
22966;DHT22;11649;48.090;9.754;2023-05-07T04:19:44;11.90;99.90
22966;DHT22;11649;48.090;9.754;2023-05-07T04:22:12;11.90;99.90
22966;DHT22;11649;48.090;9.754;2023-05-07T04:24:39;11.80;99.90
22966;DHT22;11649;48.090;9.754;2023-05-07T04:27:06;11.80;99.90
22966;DHT22;11649;48.090;9.754;2023-05-07T04:29:32;11.70;99.90
22966;DHT22;11649;48.090;9.754;2023-05-07T04:31:59;11.70;99.90
22966;DHT22;11649;48.090;9.754;2023-05-07T04:34:26;11.70;99.90
22966;DHT22;11649;48.090;9.754;2023-05-07T04:36:53;11.70;99.90
22966;DHT22;11649;48.090;9.754;2023-05-07T04:39:19;11.70;99.90
22966;DHT22;11649;48.090;9.754;2023-05-07T04:41:46;12.40;99.90
22966;DHT22;11649;48.090;9.754;2023-05-07T04:44:13;11.80;99.90
22966;DHT22;11649;48.090;9.754;2023-05-07T04:46:40;12.60;99.90
22966;DHT22;11649;48.090;9.754;2023-05-07T04:49:06;12.60;99.90
22966;DHT22;11649;48.090;9.754;2023-05-07T04:51:33;11.60;99.90
22966;DHT22;11649;48.090;9.754;2023-05-07T04:54:00;11.70;99.90
22966;DHT22;11649;48.090;9.754;2023-05-07T04:56:28;11.80;99.90
22966;DHT22;11649;48.090;9.754;2023-05-07T04:58:56;11.90;99.90
22966;DHT22;11649;48.090;9.754;2023-05-07T05:01:23;12.00;99.90
22966;DHT22;11649;48.090;9.754;2023-05-07T05:03:50;11.90;99.90
22966;DHT22;11649;48.090;9.754;2023-05-07T05:06:16;11.80;99.90
22966;DHT22;11649;48.090;9.754;2023-05-07T05:08:43;11.90;99.90
22966;DHT22;11649;48.090;9.754;2023-05-07T05:11:10;12.00;99.90
22966;DHT22;11649;48.090;9.754;2023-05-07T05:13:37;12.00;99.90
22966;DHT22;11649;48.090;9.754;2023-05-07T05:16:04;12.00;99.90
22966;DHT22;11649;48.090;9.754;2023-05-07T05:18:32;12.10;99.90
22966;DHT22;11649;48.090;9.754;2023-05-07T05:20:59;12.20;99.90
22966;DHT22;11649;48.090;9.754;2023-05-07T05:23:26;12.40;99.90
22966;DHT22;11649;48.090;9.754;2023-05-07T05:25:57;12.60;99.90
22966;DHT22;11649;48.090;9.754;2023-05-07T05:28:24;12.70;99.90
22966;DHT22;11649;48.090;9.754;2023-05-07T05:30:51;13.20;99.90
22966;DHT22;11649;48.090;9.754;2023-05-07T05:33:18;13.00;99.90
22966;DHT22;11649;48.090;9.754;2023-05-07T05:35:44;13.20;99.90
22966;DHT22;11649;48.090;9.754;2023-05-07T05:38:11;14.10;99.90
22966;DHT22;11649;48.090;9.754;2023-05-07T05:40:38;13.90;99.90
22966;DHT22;11649;48.090;9.754;2023-05-07T05:43:05;13.30;99.90
22966;DHT22;11649;48.090;9.754;2023-05-07T05:45:32;13.40;99.90
22966;DHT22;11649;48.090;9.754;2023-05-07T05:47:59;13.50;99.90
22966;DHT22;11649;48.090;9.754;2023-05-07T05:50:26;13.50;99.90
22966;DHT22;11649;48.090;9.754;2023-05-07T05:52:53;13.60;99.90
22966;DHT22;11649;48.090;9.754;2023-05-07T05:55:20;13.50;99.90
22966;DHT22;11649;48.090;9.754;2023-05-07T05:57:47;13.50;99.90
22966;DHT22;11649;48.090;9.754;2023-05-07T06:00:14;13.70;99.90
22966;DHT22;11649;48.090;9.754;2023-05-07T06:02:41;13.70;99.90
22966;DHT22;11649;48.090;9.754;2023-05-07T06:05:09;14.70;99.90
22966;DHT22;11649;48.090;9.754;2023-05-07T06:07:36;14.00;99.90
22966;DHT22;11649;48.090;9.754;2023-05-07T06:10:03;14.00;99.90
22966;DHT22;11649;48.090;9.754;2023-05-07T06:12:30;14.10;99.90
22966;DHT22;11649;48.090;9.754;2023-05-07T06:14:56;14.60;99.90
22966;DHT22;11649;48.090;9.754;2023-05-07T06:17:23;14.70;99.90
22966;DHT22;11649;48.090;9.754;2023-05-07T06:19:51;14.50;99.90
22966;DHT22;11649;48.090;9.754;2023-05-07T06:22:18;14.60;99.90
22966;DHT22;11649;48.090;9.754;2023-05-07T06:24:45;14.80;99.90
22966;DHT22;11649;48.090;9.754;2023-05-07T06:27:12;15.00;99.90
22966;DHT22;11649;48.090;9.754;2023-05-07T06:29:39;15.10;99.90
22966;DHT22;11649;48.090;9.754;2023-05-07T06:32:10;15.20;99.90
22966;DHT22;11649;48.090;9.754;2023-05-07T06:34:38;15.30;99.90
22966;DHT22;11649;48.090;9.754;2023-05-07T06:37:05;15.30;99.90
22966;DHT22;11649;48.090;9.754;2023-05-07T06:39:32;15.40;99.90
22966;DHT22;11649;48.090;9.754;2023-05-07T06:42:00;15.60;99.90
22966;DHT22;11649;48.090;9.754;2023-05-07T06:44:28;15.80;99.90
22966;DHT22;11649;48.090;9.754;2023-05-07T06:46:54;15.80;99.90
22966;DHT22;11649;48.090;9.754;2023-05-07T06:49:21;15.90;99.90
22966;DHT22;11649;48.090;9.754;2023-05-07T06:51:48;16.00;99.90
22966;DHT22;11649;48.090;9.754;2023-05-07T06:54:15;16.10;99.90
22966;DHT22;11649;48.090;9.754;2023-05-07T06:56:42;16.20;99.90
22966;DHT22;11649;48.090;9.754;2023-05-07T06:59:09;16.20;99.90
22966;DHT22;11649;48.090;9.754;2023-05-07T07:01:35;16.60;99.90
22966;DHT22;11649;48.090;9.754;2023-05-07T07:04:02;16.20;99.90
22966;DHT22;11649;48.090;9.754;2023-05-07T07:06:29;16.30;99.90
22966;DHT22;11649;48.090;9.754;2023-05-07T07:08:59;16.50;99.90
22966;DHT22;11649;48.090;9.754;2023-05-07T07:11:26;16.60;99.90
22966;DHT22;11649;48.090;9.754;2023-05-07T07:13:53;16.50;99.90
22966;DHT22;11649;48.090;9.754;2023-05-07T07:16:21;16.50;99.90
22966;DHT22;11649;48.090;9.754;2023-05-07T07:18:48;16.70;99.90
22966;DHT22;11649;48.090;9.754;2023-05-07T07:21:15;17.10;99.90
22966;DHT22;11649;48.090;9.754;2023-05-07T07:23:42;16.70;99.90
22966;DHT22;11649;48.090;9.754;2023-05-07T07:26:09;16.70;99.90
22966;DHT22;11649;48.090;9.754;2023-05-07T07:28:42;17.00;99.90
22966;DHT22;11649;48.090;9.754;2023-05-07T07:31:11;16.80;99.90
22966;DHT22;11649;48.090;9.754;2023-05-07T07:33:38;17.20;99.90
22966;DHT22;11649;48.090;9.754;2023-05-07T07:36:06;17.40;99.90
22966;DHT22;11649;48.090;9.754;2023-05-07T07:38:33;16.90;99.90
22966;DHT22;11649;48.090;9.754;2023-05-07T07:41:01;17.00;99.90
22966;DHT22;11649;48.090;9.754;2023-05-07T07:43:28;17.20;99.90
22966;DHT22;11649;48.090;9.754;2023-05-07T07:45:55;17.40;99.90
22966;DHT22;11649;48.090;9.754;2023-05-07T07:48:22;17.40;99.90
22966;DHT22;11649;48.090;9.754;2023-05-07T07:50:49;17.80;99.90
22966;DHT22;11649;48.090;9.754;2023-05-07T07:53:19;17.50;99.90
22966;DHT22;11649;48.090;9.754;2023-05-07T07:55:46;17.30;99.90
22966;DHT22;11649;48.090;9.754;2023-05-07T07:58:13;17.20;99.90
22966;DHT22;11649;48.090;9.754;2023-05-07T08:00:40;17.50;99.90
22966;DHT22;11649;48.090;9.754;2023-05-07T08:03:09;17.40;99.90
22966;DHT22;11649;48.090;9.754;2023-05-07T08:05:37;17.40;99.90
22966;DHT22;11649;48.090;9.754;2023-05-07T08:08:05;17.40;99.90
22966;DHT22;11649;48.090;9.754;2023-05-07T08:10:32;17.20;99.90
22966;DHT22;11649;48.090;9.754;2023-05-07T08:13:01;17.60;99.90
22966;DHT22;11649;48.090;9.754;2023-05-07T08:15:31;17.90;99.90
22966;DHT22;11649;48.090;9.754;2023-05-07T08:17:58;18.20;99.90
22966;DHT22;11649;48.090;9.754;2023-05-07T08:20:26;18.70;99.90
22966;DHT22;11649;48.090;9.754;2023-05-07T08:22:54;19.10;99.90
22966;DHT22;11649;48.090;9.754;2023-05-07T08:25:21;19.50;99.30
22966;DHT22;11649;48.090;9.754;2023-05-07T08:27:48;19.30;99.90
22966;DHT22;11649;48.090;9.754;2023-05-07T08:30:15;19.20;95.30
22966;DHT22;11649;48.090;9.754;2023-05-07T08:32:42;19.10;96.70
22966;DHT22;11649;48.090;9.754;2023-05-07T08:35:08;18.90;99.00
22966;DHT22;11649;48.090;9.754;2023-05-07T08:37:35;19.40;97.70
22966;DHT22;11649;48.090;9.754;2023-05-07T08:40:02;19.70;99.90
22966;DHT22;11649;48.090;9.754;2023-05-07T08:42:36;19.20;96.80
22966;DHT22;11649;48.090;9.754;2023-05-07T08:45:09;19.10;96.80
22966;DHT22;11649;48.090;9.754;2023-05-07T08:47:44;19.00;97.00
22966;DHT22;11649;48.090;9.754;2023-05-07T08:50:13;19.00;97.40
22966;DHT22;11649;48.090;9.754;2023-05-07T08:52:40;18.90;98.10
22966;DHT22;11649;48.090;9.754;2023-05-07T08:55:08;18.80;99.60
22966;DHT22;11649;48.090;9.754;2023-05-07T08:57:35;18.80;98.40
22966;DHT22;11649;48.090;9.754;2023-05-07T09:00:03;18.70;98.90
22966;DHT22;11649;48.090;9.754;2023-05-07T09:02:30;18.60;99.00
22966;DHT22;11649;48.090;9.754;2023-05-07T09:04:57;18.30;99.90
22966;DHT22;11649;48.090;9.754;2023-05-07T09:07:25;18.30;99.90
22966;DHT22;11649;48.090;9.754;2023-05-07T09:09:53;18.20;99.90
22966;DHT22;11649;48.090;9.754;2023-05-07T09:12:21;18.40;99.90
22966;DHT22;11649;48.090;9.754;2023-05-07T09:14:49;18.60;99.90
22966;DHT22;11649;48.090;9.754;2023-05-07T09:17:16;18.80;99.90
22966;DHT22;11649;48.090;9.754;2023-05-07T09:19:44;18.90;99.90
22966;DHT22;11649;48.090;9.754;2023-05-07T09:22:12;19.20;99.90
22966;DHT22;11649;48.090;9.754;2023-05-07T09:24:39;19.50;99.90
22966;DHT22;11649;48.090;9.754;2023-05-07T09:27:07;19.40;99.10
22966;DHT22;11649;48.090;9.754;2023-05-07T09:29:35;19.40;99.90
22966;DHT22;11649;48.090;9.754;2023-05-07T09:32:05;19.30;99.90
22966;DHT22;11649;48.090;9.754;2023-05-07T09:34:32;19.60;99.20
22966;DHT22;11649;48.090;9.754;2023-05-07T09:37:01;19.90;97.40
22966;DHT22;11649;48.090;9.754;2023-05-07T09:39:42;20.10;99.90
22966;DHT22;11649;48.090;9.754;2023-05-07T09:42:09;20.10;99.90
22966;DHT22;11649;48.090;9.754;2023-05-07T09:44:37;20.40;99.90
22966;DHT22;11649;48.090;9.754;2023-05-07T09:47:07;20.70;99.90
22966;DHT22;11649;48.090;9.754;2023-05-07T09:49:37;20.80;99.90
22966;DHT22;11649;48.090;9.754;2023-05-07T09:52:07;21.00;97.80
22966;DHT22;11649;48.090;9.754;2023-05-07T09:54:37;21.40;94.30
22966;DHT22;11649;48.090;9.754;2023-05-07T09:57:07;21.50;91.60
22966;DHT22;11649;48.090;9.754;2023-05-07T09:59:37;21.60;91.80
22966;DHT22;11649;48.090;9.754;2023-05-07T10:02:04;21.50;86.30
22966;DHT22;11649;48.090;9.754;2023-05-07T10:04:32;21.10;90.40
22966;DHT22;11649;48.090;9.754;2023-05-07T10:07:00;20.80;88.70
22966;DHT22;11649;48.090;9.754;2023-05-07T10:09:27;21.00;90.50
22966;DHT22;11649;48.090;9.754;2023-05-07T10:11:54;21.10;85.80
22966;DHT22;11649;48.090;9.754;2023-05-07T10:14:22;21.10;91.70
22966;DHT22;11649;48.090;9.754;2023-05-07T10:16:50;21.00;88.20
22966;DHT22;11649;48.090;9.754;2023-05-07T10:19:17;20.90;90.60
22966;DHT22;11649;48.090;9.754;2023-05-07T10:21:55;21.10;91.30
22966;DHT22;11649;48.090;9.754;2023-05-07T10:24:32;21.70;89.70
22966;DHT22;11649;48.090;9.754;2023-05-07T10:27:02;21.90;86.30
22966;DHT22;11649;48.090;9.754;2023-05-07T10:29:37;21.80;90.00
22966;DHT22;11649;48.090;9.754;2023-05-07T10:34:54;21.30;81.10
22966;DHT22;11649;48.090;9.754;2023-05-07T10:37:22;21.00;86.30
22966;DHT22;11649;48.090;9.754;2023-05-07T10:39:50;20.80;81.30
22966;DHT22;11649;48.090;9.754;2023-05-07T10:42:17;20.60;85.60
22966;DHT22;11649;48.090;9.754;2023-05-07T10:44:43;20.80;90.00
22966;DHT22;11649;48.090;9.754;2023-05-07T10:47:12;21.00;85.30
22966;DHT22;11649;48.090;9.754;2023-05-07T10:52:15;21.20;90.30
22966;DHT22;11649;48.090;9.754;2023-05-07T10:54:43;21.30;87.40
22966;DHT22;11649;48.090;9.754;2023-05-07T10:57:32;21.20;86.30
22966;DHT22;11649;48.090;9.754;2023-05-07T10:59:59;21.50;82.70
22966;DHT22;11649;48.090;9.754;2023-05-07T11:05:30;21.20;88.40
22966;DHT22;11649;48.090;9.754;2023-05-07T11:08:04;21.50;88.50
22966;DHT22;11649;48.090;9.754;2023-05-07T11:10:56;22.00;83.20
22966;DHT22;11649;48.090;9.754;2023-05-07T11:13:44;22.30;81.60
22966;DHT22;11649;48.090;9.754;2023-05-07T11:18:55;21.70;84.10
22966;DHT22;11649;48.090;9.754;2023-05-07T11:21:34;21.90;82.50
22966;DHT22;11649;48.090;9.754;2023-05-07T11:24:03;21.90;82.80
22966;DHT22;11649;48.090;9.754;2023-05-07T11:26:41;21.80;87.20
22966;DHT22;11649;48.090;9.754;2023-05-07T11:29:18;22.10;74.90
22966;DHT22;11649;48.090;9.754;2023-05-07T11:31:53;22.50;78.80
22966;DHT22;11649;48.090;9.754;2023-05-07T11:34:24;22.40;76.80
22966;DHT22;11649;48.090;9.754;2023-05-07T11:36:52;22.40;76.60
22966;DHT22;11649;48.090;9.754;2023-05-07T11:39:27;22.30;76.30
22966;DHT22;11649;48.090;9.754;2023-05-07T11:41:54;22.20;71.00
22966;DHT22;11649;48.090;9.754;2023-05-07T11:44:21;22.10;79.20
22966;DHT22;11649;48.090;9.754;2023-05-07T11:46:49;22.00;76.50
22966;DHT22;11649;48.090;9.754;2023-05-07T11:49:16;22.10;71.00
22966;DHT22;11649;48.090;9.754;2023-05-07T11:51:43;21.60;76.90
22966;DHT22;11649;48.090;9.754;2023-05-07T11:54:11;21.70;79.80
22966;DHT22;11649;48.090;9.754;2023-05-07T11:56:41;21.80;78.90
22966;DHT22;11649;48.090;9.754;2023-05-07T11:59:08;22.00;78.70
22966;DHT22;11649;48.090;9.754;2023-05-07T12:01:35;22.10;77.10
22966;DHT22;11649;48.090;9.754;2023-05-07T12:04:03;22.10;80.00
22966;DHT22;11649;48.090;9.754;2023-05-07T12:06:36;22.20;76.90
22966;DHT22;11649;48.090;9.754;2023-05-07T12:09:04;22.50;76.90
22966;DHT22;11649;48.090;9.754;2023-05-07T12:11:33;22.30;74.10
22966;DHT22;11649;48.090;9.754;2023-05-07T12:14:00;22.50;74.90
22966;DHT22;11649;48.090;9.754;2023-05-07T12:16:27;22.50;72.80
22966;DHT22;11649;48.090;9.754;2023-05-07T12:18:54;22.50;70.30
22966;DHT22;11649;48.090;9.754;2023-05-07T12:21:22;23.00;70.30
22966;DHT22;11649;48.090;9.754;2023-05-07T12:23:49;23.40;67.90
22966;DHT22;11649;48.090;9.754;2023-05-07T12:26:16;23.30;73.20
22966;DHT22;11649;48.090;9.754;2023-05-07T12:28:46;23.40;73.70
22966;DHT22;11649;48.090;9.754;2023-05-07T12:31:14;23.00;70.70
22966;DHT22;11649;48.090;9.754;2023-05-07T12:33:41;22.90;75.80
22966;DHT22;11649;48.090;9.754;2023-05-07T12:36:09;22.50;69.50
22966;DHT22;11649;48.090;9.754;2023-05-07T12:38:39;22.60;68.90
22966;DHT22;11649;48.090;9.754;2023-05-07T12:41:09;22.40;73.90
22966;DHT22;11649;48.090;9.754;2023-05-07T12:43:36;22.60;71.30
22966;DHT22;11649;48.090;9.754;2023-05-07T12:46:05;22.60;73.20
22966;DHT22;11649;48.090;9.754;2023-05-07T12:48:32;22.80;71.10
22966;DHT22;11649;48.090;9.754;2023-05-07T12:51:00;22.80;70.00
22966;DHT22;11649;48.090;9.754;2023-05-07T12:53:29;22.70;76.40
22966;DHT22;11649;48.090;9.754;2023-05-07T12:55:58;23.00;74.30
22966;DHT22;11649;48.090;9.754;2023-05-07T12:58:30;23.60;74.30
22966;DHT22;11649;48.090;9.754;2023-05-07T13:00:58;24.00;73.00
22966;DHT22;11649;48.090;9.754;2023-05-07T13:03:37;24.30;74.60
22966;DHT22;11649;48.090;9.754;2023-05-07T13:06:05;23.50;62.80
22966;DHT22;11649;48.090;9.754;2023-05-07T13:08:34;23.40;65.60
22966;DHT22;11649;48.090;9.754;2023-05-07T13:11:02;23.60;60.50
22966;DHT22;11649;48.090;9.754;2023-05-07T13:13:34;24.00;58.80
22966;DHT22;11649;48.090;9.754;2023-05-07T13:16:02;24.10;61.10
22966;DHT22;11649;48.090;9.754;2023-05-07T13:18:30;24.40;59.00
22966;DHT22;11649;48.090;9.754;2023-05-07T13:20:57;24.80;60.30
22966;DHT22;11649;48.090;9.754;2023-05-07T13:23:24;25.10;56.50
22966;DHT22;11649;48.090;9.754;2023-05-07T13:25:51;25.80;60.70
22966;DHT22;11649;48.090;9.754;2023-05-07T13:28:20;26.40;63.40
22966;DHT22;11649;48.090;9.754;2023-05-07T13:30:47;26.70;64.30
22966;DHT22;11649;48.090;9.754;2023-05-07T13:33:14;27.00;58.60
22966;DHT22;11649;48.090;9.754;2023-05-07T13:35:42;26.60;63.50
22966;DHT22;11649;48.090;9.754;2023-05-07T13:38:09;26.00;60.60
22966;DHT22;11649;48.090;9.754;2023-05-07T13:40:36;25.40;61.90
22966;DHT22;11649;48.090;9.754;2023-05-07T13:43:05;24.90;63.20
22966;DHT22;11649;48.090;9.754;2023-05-07T13:45:32;24.40;64.40
22966;DHT22;11649;48.090;9.754;2023-05-07T13:47:58;24.00;73.30
22966;DHT22;11649;48.090;9.754;2023-05-07T13:50:26;23.60;72.30
22966;DHT22;11649;48.090;9.754;2023-05-07T13:52:56;23.30;72.10
22966;DHT22;11649;48.090;9.754;2023-05-07T13:55:24;22.80;66.10
22966;DHT22;11649;48.090;9.754;2023-05-07T13:57:58;22.40;72.80
22966;DHT22;11649;48.090;9.754;2023-05-07T14:00:26;22.40;70.90
22966;DHT22;11649;48.090;9.754;2023-05-07T14:02:54;22.40;69.40
22966;DHT22;11649;48.090;9.754;2023-05-07T14:05:22;22.30;71.60
22966;DHT22;11649;48.090;9.754;2023-05-07T14:07:52;22.20;73.10
22966;DHT22;11649;48.090;9.754;2023-05-07T14:10:19;22.20;74.00
22966;DHT22;11649;48.090;9.754;2023-05-07T14:12:46;22.00;77.70
22966;DHT22;11649;48.090;9.754;2023-05-07T14:15:14;22.00;77.30
22966;DHT22;11649;48.090;9.754;2023-05-07T14:17:41;21.90;77.40
22966;DHT22;11649;48.090;9.754;2023-05-07T14:20:08;21.70;84.10
22966;DHT22;11649;48.090;9.754;2023-05-07T14:22:36;21.60;79.50
22966;DHT22;11649;48.090;9.754;2023-05-07T14:25:03;21.50;83.90
22966;DHT22;11649;48.090;9.754;2023-05-07T14:27:32;21.40;82.10
22966;DHT22;11649;48.090;9.754;2023-05-07T14:29:59;21.30;82.90
22966;DHT22;11649;48.090;9.754;2023-05-07T14:32:26;21.40;79.80
22966;DHT22;11649;48.090;9.754;2023-05-07T14:34:53;21.30;82.60
22966;DHT22;11649;48.090;9.754;2023-05-07T14:37:20;21.20;81.00
22966;DHT22;11649;48.090;9.754;2023-05-07T14:39:46;21.40;79.10
22966;DHT22;11649;48.090;9.754;2023-05-07T14:42:16;21.30;83.20
22966;DHT22;11649;48.090;9.754;2023-05-07T14:44:43;21.20;82.50
22966;DHT22;11649;48.090;9.754;2023-05-07T14:47:12;21.20;84.10
22966;DHT22;11649;48.090;9.754;2023-05-07T14:49:39;21.10;81.20
22966;DHT22;11649;48.090;9.754;2023-05-07T14:52:07;21.00;79.00
22966;DHT22;11649;48.090;9.754;2023-05-07T14:54:37;20.40;76.10
22966;DHT22;11649;48.090;9.754;2023-05-07T14:57:05;19.70;80.10
22966;DHT22;11649;48.090;9.754;2023-05-07T14:59:32;19.40;83.50
22966;DHT22;11649;48.090;9.754;2023-05-07T15:01:59;18.80;86.70
22966;DHT22;11649;48.090;9.754;2023-05-07T15:04:28;18.40;92.40
22966;DHT22;11649;48.090;9.754;2023-05-07T15:06:55;18.20;93.10
22966;DHT22;11649;48.090;9.754;2023-05-07T15:09:22;17.90;92.70
22966;DHT22;11649;48.090;9.754;2023-05-07T15:11:49;17.70;92.10
22966;DHT22;11649;48.090;9.754;2023-05-07T15:14:16;17.50;97.40
22966;DHT22;11649;48.090;9.754;2023-05-07T15:16:43;17.20;99.90
22966;DHT22;11649;48.090;9.754;2023-05-07T15:19:10;16.90;99.90
22966;DHT22;11649;48.090;9.754;2023-05-07T15:21:36;16.80;99.90
22966;DHT22;11649;48.090;9.754;2023-05-07T15:24:03;16.30;99.90
22966;DHT22;11649;48.090;9.754;2023-05-07T15:26:30;16.00;99.90
22966;DHT22;11649;48.090;9.754;2023-05-07T15:28:57;15.80;99.90
22966;DHT22;11649;48.090;9.754;2023-05-07T15:31:24;15.50;99.90
22966;DHT22;11649;48.090;9.754;2023-05-07T15:33:52;15.50;99.90
22966;DHT22;11649;48.090;9.754;2023-05-07T15:36:20;15.40;99.90
22966;DHT22;11649;48.090;9.754;2023-05-07T15:38:47;15.20;99.90
22966;DHT22;11649;48.090;9.754;2023-05-07T15:41:14;15.40;99.90
22966;DHT22;11649;48.090;9.754;2023-05-07T15:43:46;15.60;99.90
22966;DHT22;11649;48.090;9.754;2023-05-07T15:46:18;16.10;99.90